This is the latest recevied weather packets stored in our database for station/object G6LTT-13. If no packets are shown the sender has not sent any weather packets the latest 10 day(s).
| Time | Temp. | Humidity | Pressure | Rain* | Wind** | Luminosity | Snow |
|---|---|---|---|---|---|---|---|
| 1787791907 | 18.33° C | 87% | 1038.5 hPa | 0 mm | - | - | - |
| 1787790107 | 18.33° C | 88% | 1038.7 hPa | 0 mm | - | - | - |
| 1787788307 | 18.33° C | 87% | 1039.1 hPa | 0 mm | - | - | - |
| 1787786507 | 18.33° C | 87% | 1039.4 hPa | 0 mm | - | - | - |
| 1787784707 | 18.33° C | 88% | 1039.6 hPa | 0 mm | - | - | - |
| 1787782907 | 18.33° C | 88% | 1039.9 hPa | 0 mm | - | - | - |
| 1787781107 | 18.89° C | 87% | 1040.1 hPa | 0 mm | - | - | - |
| 1787779307 | 18.89° C | 85% | 1040.4 hPa | 0 mm | - | - | - |
| 1787777507 | 19.44° C | 82% | 1040.3 hPa | 0 mm | - | - | - |
| 1787775707 | 20.56° C | 80% | 1040.2 hPa | 0 mm | - | - | - |
| 1787773912 | 20.56° C | 77% | 1040.3 hPa | 0 mm | - | - | - |
| 1787772107 | 21.67° C | 75% | 1040.4 hPa | 0 mm | - | - | - |
| 1787770307 | 21.67° C | 72% | 1040.1 hPa | 0 mm | - | - | - |
| 1787768507 | 22.78° C | 69% | 1040 hPa | 0 mm | - | - | - |
| 1787766708 | 23.33° C | 66% | 1039.7 hPa | 0 mm | - | - | - |
| 1787764907 | 23.89° C | 64% | 1039.6 hPa | 0 mm | - | - | - |
| 1787763107 | 24.44° C | 62% | 1039.6 hPa | 0 mm | - | - | - |
| 1787761307 | 26.11° C | 60% | 1039.6 hPa | 0 mm | - | - | - |
| 1787759507 | 26.11° C | 58% | 1039.6 hPa | 0 mm | - | - | - |
| 1787757707 | 25.56° C | 59% | 1040 hPa | 0 mm | - | - | - |
| 1787755907 | 26.67° C | 55% | 1039.8 hPa | 0 mm | - | - | - |
| 1787754107 | 25.56° C | 56% | 1040.1 hPa | 0 mm | - | - | - |
| 1787752307 | 26.67° C | 54% | 1040.5 hPa | 0 mm | - | - | - |
| 1787750507 | 26.11° C | 57% | 1040.7 hPa | 0 mm | - | - | - |
| 1787748707 | 26.11° C | 57% | 1041 hPa | 0 mm | - | - | - |
* Rain latest hour (hover to see other rain measurements)
** Current wind speed in m/s (hover to see current wind gust speed)